createdAt,value
2023-03-10T00:00:05.982Z,99421.28
2023-03-10T00:02:35.089Z,99424.84
2023-03-10T00:05:03.519Z,99416.06
2023-03-10T00:07:31.196Z,99409.09
2023-03-10T00:09:58.862Z,99388.97
2023-03-10T00:12:27.925Z,99386.44
2023-03-10T00:14:56.288Z,99387.28
2023-03-10T00:17:23.992Z,99378.56
2023-03-10T00:19:53.042Z,99382.88
2023-03-10T00:22:20.731Z,99375.94
2023-03-10T00:24:48.596Z,99377.63
2023-03-10T00:27:16.327Z,99365.38
2023-03-10T00:29:44.013Z,99358.31
2023-03-10T00:32:11.744Z,99349.63
2023-03-10T00:34:39.471Z,99351.38
2023-03-10T00:37:09.303Z,99356.63
2023-03-10T00:39:37.115Z,99352.25
2023-03-10T00:42:05.010Z,99356.50
2023-03-10T00:44:32.816Z,99350.25
2023-03-10T00:47:00.474Z,99345.84
2023-03-10T00:49:28.155Z,99347.63
2023-03-10T00:51:55.863Z,99332.75
2023-03-10T00:54:24.910Z,99329.25
2023-03-10T00:56:52.572Z,99320.53
2023-03-10T00:59:20.290Z,99322.38
2023-03-10T01:01:48.058Z,99311.88
2023-03-10T01:04:18.807Z,99307.56
2023-03-10T01:06:47.663Z,99297.06
2023-03-10T01:09:15.587Z,99294.47
2023-03-10T01:11:44.629Z,99295.34
2023-03-10T01:14:13.555Z,99293.66
2023-03-10T01:16:41.215Z,99284.03
2023-03-10T01:19:08.946Z,99284.09
2023-03-10T01:21:37.705Z,99273.63
2023-03-10T01:24:06.275Z,99271.00
2023-03-10T01:26:33.959Z,99261.34
2023-03-10T01:29:02.985Z,99253.56
2023-03-10T01:31:30.779Z,99248.31
2023-03-10T01:33:58.604Z,99241.38
2023-03-10T01:36:27.145Z,99244.91
2023-03-10T01:38:54.888Z,99231.84
2023-03-10T01:41:22.675Z,99233.50
2023-03-10T01:43:50.742Z,99232.63
2023-03-10T01:46:37.042Z,99220.38
2023-03-10T01:49:06.815Z,99207.25
2023-03-10T01:51:35.804Z,99206.56
2023-03-10T01:54:03.959Z,99206.59
2023-03-10T01:56:31.648Z,99194.41
2023-03-10T01:58:59.344Z,99191.84
2023-03-10T02:01:28.406Z,99192.72
2023-03-10T02:03:59.301Z,99202.34
2023-03-10T02:06:27.012Z,99191.03
2023-03-10T02:08:57.541Z,99189.31
2023-03-10T02:11:25.451Z,99184.06
2023-03-10T02:13:53.197Z,99178.00
2023-03-10T02:16:20.913Z,99169.25
2023-03-10T02:18:49.989Z,99165.81
2023-03-10T02:21:21.787Z,99150.91
2023-03-10T02:24:01.079Z,99162.31
2023-03-10T02:26:34.761Z,99164.94
2023-03-10T02:29:04.907Z,99152.75
2023-03-10T02:31:32.633Z,99152.75
2023-03-10T02:34:00.311Z,99155.47
2023-03-10T02:36:28.025Z,99146.72
2023-03-10T02:38:55.769Z,99145.91
2023-03-10T02:41:25.983Z,99143.34
2023-03-10T02:43:53.703Z,99140.72
2023-03-10T02:46:22.837Z,99138.03
2023-03-10T02:48:50.783Z,99132.72
2023-03-10T02:51:20.700Z,99119.69
2023-03-10T02:53:48.371Z,99117.13
2023-03-10T02:56:16.048Z,99113.66
2023-03-10T02:58:43.904Z,99111.97
2023-03-10T03:01:11.577Z,99116.25
2023-03-10T03:03:40.687Z,99112.81
2023-03-10T03:06:08.516Z,99108.41
2023-03-10T03:08:36.196Z,99100.47
2023-03-10T03:11:03.904Z,99110.94
2023-03-10T03:13:31.574Z,99105.69
2023-03-10T03:15:59.287Z,99111.81
2023-03-10T03:18:26.992Z,99102.16
2023-03-10T03:20:56.004Z,99100.47
2023-03-10T03:23:23.728Z,99092.50
2023-03-10T03:25:51.453Z,99084.72
2023-03-10T03:28:19.202Z,99089.97
2023-03-10T03:30:47.154Z,99087.34
2023-03-10T03:33:14.812Z,99083.84
2023-03-10T03:35:43.602Z,99084.72
2023-03-10T03:38:12.705Z,99088.13
2023-03-10T03:40:40.748Z,99084.72
2023-03-10T03:43:08.398Z,99087.34
2023-03-10T03:45:36.044Z,99083.84
2023-03-10T03:48:03.720Z,99081.25
2023-03-10T03:50:31.474Z,99078.63
2023-03-10T03:52:59.152Z,99072.53
2023-03-10T03:55:28.862Z,99078.72
2023-03-10T03:57:56.592Z,99065.59
2023-03-10T04:00:25.157Z,99064.75
2023-03-10T04:02:53.093Z,99063.06
2023-03-10T04:05:20.823Z,99059.50
2023-03-10T04:07:49.880Z,99060.38
2023-03-10T04:10:19.106Z,99051.72
2023-03-10T04:12:48.159Z,99043.91
2023-03-10T04:15:16.145Z,99040.47
2023-03-10T04:17:43.822Z,99040.38
2023-03-10T04:20:14.176Z,99047.41
2023-03-10T04:22:41.866Z,99045.72
2023-03-10T04:25:10.022Z,99041.28
2023-03-10T04:27:37.704Z,99036.13
2023-03-10T04:30:08.266Z,99036.13
2023-03-10T04:32:35.995Z,99034.44
2023-03-10T04:35:03.772Z,99034.44
2023-03-10T04:37:31.460Z,99034.44
2023-03-10T04:39:59.159Z,99035.38
2023-03-10T04:42:28.113Z,99035.38
2023-03-10T04:44:55.795Z,99038.00
2023-03-10T04:47:24.804Z,99046.72
2023-03-10T04:49:52.540Z,99038.00
2023-03-10T04:52:20.238Z,99033.69
2023-03-10T04:54:48.339Z,99039.69
2023-03-10T04:57:16.221Z,99037.06
2023-03-10T04:59:44.000Z,99032.75
2023-03-10T05:02:11.703Z,99037.13
2023-03-10T05:04:40.823Z,99032.84
2023-03-10T05:07:08.483Z,99034.59
2023-03-10T05:09:37.238Z,99029.34
2023-03-10T05:12:05.360Z,99027.50
2023-03-10T05:14:33.083Z,99024.09
2023-03-10T05:17:00.832Z,99018.09
2023-03-10T05:19:28.714Z,99018.09
2023-03-10T05:21:58.174Z,99023.34
2023-03-10T05:24:25.857Z,99019.03
2023-03-10T05:26:53.579Z,99027.66
2023-03-10T05:29:21.871Z,99029.34
2023-03-10T05:31:49.630Z,99027.66
2023-03-10T05:34:17.694Z,99023.28
2023-03-10T05:36:45.348Z,99020.59
2023-03-10T05:39:14.617Z,99015.34
2023-03-10T05:41:42.293Z,99019.66
2023-03-10T05:44:10.579Z,99022.19
2023-03-10T05:46:38.507Z,99025.56
2023-03-10T05:49:06.220Z,99022.13
2023-03-10T05:51:33.914Z,99012.44
2023-03-10T05:54:01.557Z,99021.19
2023-03-10T05:56:30.723Z,99032.59
2023-03-10T05:58:58.420Z,99029.97
2023-03-10T06:01:26.090Z,99027.34
2023-03-10T06:03:53.777Z,99029.13
2023-03-10T06:06:21.517Z,99032.50
2023-03-10T06:08:49.260Z,99025.63
2023-03-10T06:11:16.948Z,99028.25
2023-03-10T06:13:45.955Z,99028.19
2023-03-10T06:16:13.657Z,99020.25
2023-03-10T06:18:41.377Z,99009.75
2023-03-10T06:21:09.680Z,99004.50
2023-03-10T06:23:37.603Z,99007.13
2023-03-10T06:26:06.976Z,99005.44
2023-03-10T06:28:36.547Z,99005.53
2023-03-10T06:31:06.677Z,99012.53
2023-03-10T06:33:34.468Z,99009.91
2023-03-10T06:36:02.294Z,99019.56
2023-03-10T06:38:30.572Z,99018.72
2023-03-10T06:40:58.445Z,99018.84
2023-03-10T06:43:26.236Z,99024.09
2023-03-10T06:45:54.043Z,99034.69
2023-03-10T06:48:23.119Z,99036.38
2023-03-10T06:50:50.893Z,99037.22
2023-03-10T06:53:21.254Z,99032.91
2023-03-10T06:55:58.104Z,99029.34
2023-03-10T06:58:25.878Z,99031.97
2023-03-10T07:00:53.665Z,99034.50
2023-03-10T07:03:22.727Z,99040.63
2023-03-10T07:05:50.433Z,99047.47
2023-03-10T07:08:18.176Z,99054.25
2023-03-10T07:10:45.853Z,99055.88
2023-03-10T07:13:15.574Z,99060.19
2023-03-10T07:15:43.325Z,99060.97
2023-03-10T07:18:11.030Z,99059.09
2023-03-10T07:20:41.575Z,99062.50
2023-03-10T07:23:09.276Z,99066.81
2023-03-10T07:25:37.520Z,99072.91
2023-03-10T07:28:05.522Z,99084.22
2023-03-10T07:30:33.319Z,99083.28
2023-03-10T07:33:00.983Z,99082.25
2023-03-10T07:35:28.798Z,99089.03
2023-03-10T07:37:58.977Z,99096.91
2023-03-10T07:40:26.679Z,99096.16
2023-03-10T07:42:54.777Z,99095.28
2023-03-10T07:45:22.900Z,99093.53
2023-03-10T07:47:51.207Z,99085.66
2023-03-10T07:50:19.124Z,99092.66
2023-03-10T07:52:46.822Z,99094.47
2023-03-10T07:55:15.855Z,99097.97
2023-03-10T07:57:43.572Z,99104.25
2023-03-10T08:00:12.202Z,99102.53
2023-03-10T08:02:39.962Z,99105.22
2023-03-10T08:05:08.726Z,99107.91
2023-03-10T08:07:36.528Z,99108.78
2023-03-10T08:10:04.420Z,99106.16
2023-03-10T08:12:34.067Z,99116.72
2023-03-10T08:15:01.744Z,99113.25
2023-03-10T08:17:30.825Z,99118.59
2023-03-10T08:19:58.768Z,99119.41
2023-03-10T08:22:26.594Z,99119.41
2023-03-10T08:24:54.345Z,99119.41
2023-03-10T08:27:22.140Z,99115.97
2023-03-10T08:29:51.176Z,99117.72
2023-03-10T08:32:19.778Z,99111.63
2023-03-10T08:34:47.642Z,99117.72
2023-03-10T08:37:15.335Z,99115.09
2023-03-10T08:39:43.037Z,99122.13
2023-03-10T08:42:11.575Z,99112.47
2023-03-10T08:44:39.401Z,99121.28
2023-03-10T08:47:08.654Z,99121.28
2023-03-10T08:49:36.386Z,99118.75
2023-03-10T08:52:04.276Z,99117.88
2023-03-10T08:54:32.690Z,99113.56
2023-03-10T08:57:00.733Z,99118.81
2023-03-10T08:59:28.579Z,99115.34
2023-03-10T09:01:56.274Z,99120.56
2023-03-10T09:04:25.334Z,99118.06
2023-03-10T09:06:53.088Z,99126.75
2023-03-10T09:09:20.780Z,99116.25
2023-03-10T09:11:48.439Z,99118.88
2023-03-10T09:14:17.385Z,99118.88
2023-03-10T09:16:45.266Z,99125.06
2023-03-10T09:19:13.016Z,99124.13
2023-03-10T09:21:42.638Z,99132.88
2023-03-10T09:24:10.333Z,99132.00
2023-03-10T09:26:38.019Z,99128.56
2023-03-10T09:29:05.693Z,99132.88
2023-03-10T09:31:34.872Z,99132.06
2023-03-10T09:34:02.692Z,99139.03
2023-03-10T09:36:30.611Z,99137.25
2023-03-10T09:38:59.827Z,99134.56
2023-03-10T09:41:38.840Z,99140.72
2023-03-10T09:44:13.842Z,99142.41
2023-03-10T09:46:43.631Z,99135.50
2023-03-10T09:49:13.306Z,99141.56
2023-03-10T09:51:41.863Z,99139.88
2023-03-10T09:54:31.012Z,99136.31
2023-03-10T09:56:59.640Z,99140.72
2023-03-10T09:59:31.856Z,99146.81
2023-03-10T10:02:00.171Z,99145.13
2023-03-10T10:04:29.715Z,99140.72
2023-03-10T10:06:57.440Z,99153.78
2023-03-10T10:09:28.994Z,99150.28
2023-03-10T10:11:57.015Z,99152.91
2023-03-10T10:14:29.845Z,99146.81
2023-03-10T10:17:02.448Z,99151.22
2023-03-10T10:19:30.312Z,99162.47
2023-03-10T10:21:59.948Z,99166.81
2023-03-10T10:24:29.162Z,99165.09
2023-03-10T10:26:56.876Z,99170.34
2023-03-10T10:29:25.397Z,99165.09
2023-03-10T10:32:14.155Z,99174.56
2023-03-10T10:34:42.697Z,99166.81
2023-03-10T10:37:25.320Z,99173.75
2023-03-10T10:39:54.715Z,99168.50
2023-03-10T10:42:24.233Z,99165.03
2023-03-10T10:44:53.456Z,99165.03
2023-03-10T10:47:29.653Z,99161.56
2023-03-10T10:50:09.535Z,99164.19
2023-03-10T10:52:37.203Z,99165.88
2023-03-10T10:55:07.042Z,99158.84
2023-03-10T10:57:35.914Z,99158.00
2023-03-10T11:00:19.420Z,99161.38
2023-03-10T11:02:47.184Z,99157.84
2023-03-10T11:05:16.813Z,99166.50
2023-03-10T11:07:45.014Z,99159.56
2023-03-10T11:10:15.434Z,99157.84
2023-03-10T11:12:53.610Z,99156.06
2023-03-10T11:15:23.892Z,99145.56
2023-03-10T11:17:55.007Z,99154.31
2023-03-10T11:20:25.857Z,99156.06
2023-03-10T11:22:56.601Z,99156.00
2023-03-10T11:25:31.478Z,99155.06
2023-03-10T11:28:05.776Z,99155.06
2023-03-10T11:30:34.091Z,99148.06
2023-03-10T11:33:07.941Z,99154.97
2023-03-10T11:35:38.862Z,99158.63
2023-03-10T11:38:12.544Z,99156.00
2023-03-10T11:40:44.755Z,99152.44
2023-03-10T11:43:15.579Z,99147.19
2023-03-10T11:45:45.584Z,99150.63
2023-03-10T11:48:26.526Z,99152.31
2023-03-10T11:50:55.165Z,99145.38
2023-03-10T11:53:29.114Z,99154.94
2023-03-10T11:55:58.508Z,99148.84
2023-03-10T11:58:27.932Z,99153.28
2023-03-10T12:00:55.814Z,99145.50
2023-03-10T12:03:31.222Z,99143.81
2023-03-10T12:05:59.683Z,99153.44
2023-03-10T12:08:30.662Z,99147.34
2023-03-10T12:11:00.225Z,99145.66
2023-03-10T12:13:28.738Z,99150.91
2023-03-10T12:15:59.577Z,99145.66
2023-03-10T12:18:27.391Z,99138.72
2023-03-10T12:21:20.602Z,99140.41
2023-03-10T12:23:48.558Z,99140.34
2023-03-10T12:26:23.779Z,99143.81
2023-03-10T12:28:51.795Z,99147.34
2023-03-10T12:31:46.554Z,99155.13
2023-03-10T12:34:15.132Z,99157.75
2023-03-10T12:36:42.803Z,99149.88
2023-03-10T12:39:31.760Z,99147.19
2023-03-10T12:42:00.946Z,99144.56
2023-03-10T12:44:51.311Z,99142.66
2023-03-10T12:47:26.138Z,99147.81
2023-03-10T12:49:56.144Z,99147.75
2023-03-10T12:52:28.411Z,99142.50
2023-03-10T12:55:08.707Z,99146.00
2023-03-10T12:57:42.428Z,99138.88
2023-03-10T13:00:16.234Z,99141.50
2023-03-10T13:02:47.463Z,99143.38
2023-03-10T13:05:21.084Z,99154.78
2023-03-10T13:07:49.759Z,99150.38
2023-03-10T13:10:18.252Z,99148.63
2023-03-10T13:12:48.624Z,99140.75
2023-03-10T13:15:24.414Z,99139.97
2023-03-10T13:17:55.089Z,99134.72
2023-03-10T13:20:23.116Z,99127.69
2023-03-10T13:22:54.788Z,99132.69
2023-03-10T13:25:22.816Z,99146.59
2023-03-10T13:27:52.554Z,99155.41
2023-03-10T13:30:21.126Z,99148.44
2023-03-10T13:32:58.584Z,99148.53
2023-03-10T13:35:30.631Z,99142.50
2023-03-10T13:38:06.148Z,99141.56
2023-03-10T13:40:33.849Z,99134.56
2023-03-10T13:43:02.887Z,99121.28
2023-03-10T13:45:34.295Z,99117.72
2023-03-10T13:48:02.819Z,99115.09
2023-03-10T13:50:30.696Z,99119.41
2023-03-10T13:52:59.685Z,99113.22
2023-03-10T13:55:27.517Z,99122.91
2023-03-10T13:57:55.302Z,99121.03
2023-03-10T14:00:24.877Z,99119.25
2023-03-10T14:02:53.037Z,99111.41
2023-03-10T14:05:41.580Z,99120.09
2023-03-10T14:08:18.596Z,99138.47
2023-03-10T14:10:46.251Z,99139.41
2023-03-10T14:13:41.195Z,99135.94
2023-03-10T14:16:10.423Z,99137.78
2023-03-10T14:18:38.611Z,99142.22
2023-03-10T14:21:34.523Z,99140.47
2023-03-10T14:24:06.609Z,99139.66
2023-03-10T14:26:34.468Z,99138.78
2023-03-10T14:29:03.283Z,99136.25
2023-03-10T14:31:32.298Z,99143.28
2023-03-10T14:33:59.938Z,99148.63
2023-03-10T14:36:28.127Z,99146.00
2023-03-10T14:38:55.870Z,99139.81
2023-03-10T14:41:24.695Z,99145.06
2023-03-10T14:43:52.586Z,99137.19
2023-03-10T14:46:20.476Z,99138.03
2023-03-10T14:48:49.729Z,99136.31
2023-03-10T14:51:32.521Z,99135.50
2023-03-10T14:54:02.269Z,99143.44
2023-03-10T14:56:30.001Z,99141.75
2023-03-10T14:59:01.944Z,99139.97
2023-03-10T15:01:29.834Z,99126.09
2023-03-10T15:03:58.883Z,99128.72
2023-03-10T15:06:26.574Z,99130.47
2023-03-10T15:08:54.317Z,99135.75
2023-03-10T15:11:36.132Z,99136.69
2023-03-10T15:14:05.207Z,99149.06
2023-03-10T15:16:32.900Z,99146.50
2023-03-10T15:19:02.179Z,99150.91
2023-03-10T15:21:29.859Z,99145.66
2023-03-10T15:23:57.556Z,99145.72
2023-03-10T15:26:25.234Z,99134.41
2023-03-10T15:28:53.198Z,99136.16
2023-03-10T15:31:21.151Z,99140.59
2023-03-10T15:33:49.017Z,99147.66
2023-03-10T15:36:18.738Z,99149.44
2023-03-10T15:38:46.506Z,99146.81
2023-03-10T15:41:14.235Z,99140.72
2023-03-10T15:43:41.913Z,99147.75
2023-03-10T15:46:09.692Z,99153.06
2023-03-10T15:48:37.431Z,99166.09
2023-03-10T15:51:09.848Z,99167.03
2023-03-10T15:53:39.053Z,99157.47
2023-03-10T15:56:07.480Z,99160.19
2023-03-10T15:58:35.215Z,99161.09
2023-03-10T16:01:07.592Z,99168.13
2023-03-10T16:03:36.034Z,99172.50
2023-03-10T16:06:03.783Z,99176.06
2023-03-10T16:08:37.088Z,99183.00
2023-03-10T16:11:07.243Z,99185.72
2023-03-10T16:13:34.921Z,99190.09
2023-03-10T16:16:06.191Z,99191.88
2023-03-10T16:18:34.225Z,99192.78
2023-03-10T16:21:02.337Z,99200.72
2023-03-10T16:23:31.724Z,99200.81
2023-03-10T16:26:08.219Z,99213.09
2023-03-10T16:28:35.925Z,99215.72
2023-03-10T16:31:04.076Z,99214.03
2023-03-10T16:33:31.894Z,99212.22
2023-03-10T16:36:00.290Z,99223.56
2023-03-10T16:38:28.087Z,99224.50
2023-03-10T16:40:57.450Z,99228.03
2023-03-10T16:43:28.678Z,99241.16
2023-03-10T16:46:05.925Z,99236.75
2023-03-10T16:48:33.603Z,99235.06
2023-03-10T16:51:01.303Z,99235.06
2023-03-10T16:53:28.994Z,99228.09
2023-03-10T16:56:04.397Z,99229.97
2023-03-10T16:58:34.007Z,99233.44
2023-03-10T17:01:01.982Z,99229.09
2023-03-10T17:03:29.702Z,99225.66
2023-03-10T17:05:57.456Z,99227.41
2023-03-10T17:08:25.130Z,99221.41
2023-03-10T17:10:52.785Z,99222.31
2023-03-10T17:13:20.479Z,99222.31
2023-03-10T17:15:49.551Z,99217.16
2023-03-10T17:18:19.336Z,99225.88
2023-03-10T17:20:47.096Z,99224.19
2023-03-10T17:23:14.748Z,99232.97
2023-03-10T17:25:43.230Z,99222.47
2023-03-10T17:28:10.887Z,99239.16
2023-03-10T17:30:39.883Z,99239.28
2023-03-10T17:33:09.271Z,99249.72
2023-03-10T17:35:38.404Z,99241.91
2023-03-10T17:38:06.088Z,99251.47
2023-03-10T17:40:34.714Z,99245.47
2023-03-10T17:43:13.259Z,99250.72
2023-03-10T17:45:57.006Z,99257.72
2023-03-10T17:48:26.230Z,99248.16
2023-03-10T17:50:53.904Z,99258.63
2023-03-10T17:53:21.590Z,99256.84
2023-03-10T17:55:49.295Z,99263.00
2023-03-10T17:58:17.011Z,99265.72
2023-03-10T18:00:44.671Z,99266.56
2023-03-10T18:03:12.391Z,99266.56
2023-03-10T18:05:42.318Z,99271.81
2023-03-10T18:08:10.127Z,99266.63
2023-03-10T18:10:38.185Z,99278.06
2023-03-10T18:13:06.779Z,99284.13
2023-03-10T18:15:35.125Z,99286.00
2023-03-10T18:18:02.913Z,99284.28
2023-03-10T18:20:30.603Z,99296.47
2023-03-10T18:23:00.975Z,99293.84
2023-03-10T18:25:28.697Z,99293.09
2023-03-10T18:27:56.534Z,99303.56
2023-03-10T18:30:25.863Z,99305.41
2023-03-10T18:32:53.629Z,99316.75
2023-03-10T18:35:21.380Z,99316.75
2023-03-10T18:37:49.091Z,99320.25
2023-03-10T18:40:18.365Z,99328.13
2023-03-10T18:42:46.153Z,99329.06
2023-03-10T18:45:13.879Z,99338.72
2023-03-10T18:47:42.556Z,99337.84
2023-03-10T18:50:12.040Z,99344.84
2023-03-10T18:52:39.799Z,99355.44
2023-03-10T18:55:07.870Z,99355.44
2023-03-10T18:57:36.914Z,99365.06
2023-03-10T19:00:07.573Z,99367.75
2023-03-10T19:02:35.477Z,99385.31
2023-03-10T19:05:05.131Z,99389.63
2023-03-10T19:07:33.666Z,99400.19
2023-03-10T19:10:01.370Z,99403.72
2023-03-10T19:12:29.083Z,99408.19
2023-03-10T19:14:59.300Z,99417.72
2023-03-10T19:17:27.411Z,99421.28
2023-03-10T19:19:55.185Z,99423.13
2023-03-10T19:22:22.953Z,99431.13
2023-03-10T19:24:50.638Z,99440.84
2023-03-10T19:27:18.484Z,99435.72
2023-03-10T19:29:46.176Z,99448.03
2023-03-10T19:32:15.514Z,99452.44
2023-03-10T19:34:43.212Z,99462.03
2023-03-10T19:37:10.916Z,99472.53
2023-03-10T19:39:38.624Z,99473.38
2023-03-10T19:42:06.426Z,99478.63
2023-03-10T19:44:34.135Z,99485.63
2023-03-10T19:47:02.013Z,99499.66
2023-03-10T19:49:34.109Z,99496.97
2023-03-10T19:52:01.865Z,99502.22
2023-03-10T19:54:29.599Z,99507.44
2023-03-10T19:56:57.283Z,99524.88
2023-03-10T19:59:24.989Z,99529.19
2023-03-10T20:01:52.707Z,99530.06
2023-03-10T20:04:20.404Z,99533.53
2023-03-10T20:06:49.511Z,99535.28
2023-03-10T20:09:18.914Z,99543.91
2023-03-10T20:11:46.646Z,99548.34
2023-03-10T20:14:14.346Z,99552.66
2023-03-10T20:16:42.050Z,99558.75
2023-03-10T20:19:09.796Z,99561.38
2023-03-10T20:21:37.472Z,99565.75
2023-03-10T20:24:07.211Z,99573.56
2023-03-10T20:26:34.905Z,99583.16
2023-03-10T20:29:02.588Z,99586.72
2023-03-10T20:31:33.860Z,99583.31
2023-03-10T20:34:01.773Z,99599.03
2023-03-10T20:36:29.498Z,99600.75
2023-03-10T20:38:57.207Z,99605.97
2023-03-10T20:41:26.267Z,99609.31
2023-03-10T20:43:55.247Z,99614.63
2023-03-10T20:46:24.704Z,99625.97
2023-03-10T20:48:52.433Z,99628.59
2023-03-10T20:51:22.511Z,99632.91
2023-03-10T20:53:51.740Z,99633.03
2023-03-10T20:56:19.466Z,99644.44
2023-03-10T20:58:48.602Z,99652.28
2023-03-10T21:01:16.684Z,99654.91
2023-03-10T21:03:44.498Z,99652.28
2023-03-10T21:06:12.250Z,99648.75
2023-03-10T21:08:39.975Z,99655.78
2023-03-10T21:11:07.661Z,99661.94
2023-03-10T21:13:35.390Z,99665.34
2023-03-10T21:16:04.652Z,99670.50
2023-03-10T21:18:32.363Z,99664.41
2023-03-10T21:21:00.044Z,99681.06
2023-03-10T21:23:27.789Z,99675.88
2023-03-10T21:25:55.486Z,99685.56
2023-03-10T21:28:23.165Z,99680.34
2023-03-10T21:30:50.858Z,99687.34
2023-03-10T21:33:22.936Z,99700.44
2023-03-10T21:35:50.675Z,99704.81
2023-03-10T21:38:18.408Z,99714.47
2023-03-10T21:40:46.146Z,99711.03
2023-03-10T21:43:13.864Z,99725.09
2023-03-10T21:45:41.626Z,99730.34
2023-03-10T21:48:11.546Z,99730.34
2023-03-10T21:50:40.603Z,99740.00
2023-03-10T21:53:08.365Z,99737.44
2023-03-10T21:55:38.159Z,99737.44
2023-03-10T21:58:06.494Z,99733.09
2023-03-10T22:00:36.043Z,99742.66
2023-03-10T22:03:03.990Z,99750.59
2023-03-10T22:05:31.762Z,99747.19
2023-03-10T22:08:01.026Z,99755.94
2023-03-10T22:10:28.770Z,99753.31
2023-03-10T22:12:56.467Z,99758.56
2023-03-10T22:15:25.285Z,99781.25
2023-03-10T22:17:53.628Z,99772.53
2023-03-10T22:20:22.801Z,99773.41
2023-03-10T22:22:50.572Z,99779.53
2023-03-10T22:25:19.796Z,99783.03
2023-03-10T22:27:49.844Z,99788.25
2023-03-10T22:30:17.732Z,99796.13
2023-03-10T22:32:45.520Z,99794.47
2023-03-10T22:35:13.235Z,99797.88
2023-03-10T22:37:40.988Z,99802.28
2023-03-10T22:40:10.251Z,99802.22
2023-03-10T22:42:39.700Z,99801.34
2023-03-10T22:45:08.501Z,99806.59
2023-03-10T22:47:36.205Z,99815.31
2023-03-10T22:50:04.344Z,99820.56
2023-03-10T22:52:32.105Z,99825.81
2023-03-10T22:55:00.212Z,99829.31
2023-03-10T22:57:27.890Z,99832.84
2023-03-10T22:59:56.939Z,99832.84
2023-03-10T23:02:24.592Z,99843.34
2023-03-10T23:04:52.263Z,99839.13
2023-03-10T23:07:19.931Z,99856.56
2023-03-10T23:09:47.594Z,99866.97
2023-03-10T23:12:15.267Z,99862.59
2023-03-10T23:14:42.932Z,99866.13
2023-03-10T23:17:11.950Z,99869.66
2023-03-10T23:19:39.603Z,99875.75
2023-03-10T23:22:07.347Z,99881.84
2023-03-10T23:24:35.166Z,99881.03
2023-03-10T23:27:02.829Z,99889.75
2023-03-10T23:29:30.481Z,99885.50
2023-03-10T23:31:58.176Z,99897.66
2023-03-10T23:34:27.188Z,99898.63
2023-03-10T23:36:57.196Z,99897.66
2023-03-10T23:39:24.893Z,99904.75
2023-03-10T23:41:52.569Z,99909.97
2023-03-10T23:44:20.900Z,99915.28
2023-03-10T23:46:51.716Z,99921.34
2023-03-10T23:49:19.429Z,99926.59
2023-03-10T23:51:48.738Z,99934.44
2023-03-10T23:54:20.538Z,99944.03
2023-03-10T23:56:48.276Z,99945.78
2023-03-10T23:59:15.953Z,99955.47
